createdAt,value
2022-10-28T00:01:20.926Z,7.80
2022-10-28T00:03:56.895Z,9.05
2022-10-28T00:06:26.948Z,7.65
2022-10-28T00:08:55.497Z,8.98
2022-10-28T00:11:25.494Z,9.27
2022-10-28T00:13:55.192Z,8.07
2022-10-28T00:16:28.882Z,7.60
2022-10-28T00:18:57.825Z,9.38
2022-10-28T00:21:28.110Z,9.18
2022-10-28T00:23:56.112Z,9.90
2022-10-28T00:26:26.275Z,8.95
2022-10-28T00:28:55.010Z,8.15
2022-10-28T00:31:24.663Z,8.80
2022-10-28T00:33:52.445Z,8.00
2022-10-28T00:36:22.126Z,8.02
2022-10-28T00:38:51.536Z,9.20
2022-10-28T00:41:23.548Z,8.25
2022-10-28T00:43:53.115Z,9.57
2022-10-28T00:46:23.164Z,10.10
2022-10-28T00:48:55.455Z,9.95
2022-10-28T00:51:24.305Z,8.77
2022-10-28T00:53:53.102Z,8.95
2022-10-28T00:56:22.410Z,9.18
2022-10-28T00:58:51.304Z,8.27
2022-10-28T01:01:18.633Z,10.88
2022-10-28T01:03:47.074Z,9.25
2022-10-28T01:06:15.204Z,11.02
2022-10-28T01:08:42.576Z,13.10
2022-10-28T01:11:17.594Z,11.50
2022-10-28T01:14:07.480Z,10.70
2022-10-28T01:17:02.808Z,9.25
2022-10-28T01:19:59.635Z,9.05
2022-10-28T01:22:54.074Z,9.35
2022-10-28T01:25:21.585Z,9.20
2022-10-28T01:28:21.297Z,10.20
2022-10-28T01:31:20.522Z,10.60
2022-10-28T01:33:48.173Z,7.47
2022-10-28T01:36:18.730Z,9.10
2022-10-28T01:38:51.277Z,9.25
2022-10-28T01:41:52.140Z,8.27
2022-10-28T01:44:25.548Z,8.82
2022-10-28T01:47:10.575Z,8.35
2022-10-28T01:49:57.843Z,9.75
2022-10-28T01:52:28.874Z,10.93
2022-10-28T01:55:14.284Z,8.40
2022-10-28T01:57:43.319Z,10.30
2022-10-28T02:00:11.324Z,8.05
2022-10-28T02:02:42.824Z,9.05
2022-10-28T02:05:39.669Z,9.10
2022-10-28T02:08:19.216Z,9.02
2022-10-28T02:11:00.532Z,9.20
2022-10-28T02:14:10.745Z,8.35
2022-10-28T02:16:48.326Z,8.55
2022-10-28T02:19:19.343Z,10.10
2022-10-28T02:22:15.732Z,9.77
2022-10-28T02:25:04.379Z,10.30
2022-10-28T02:27:31.619Z,9.63
2022-10-28T02:30:07.902Z,12.35
2022-10-28T02:32:44.467Z,10.13
2022-10-28T02:35:21.701Z,10.50
2022-10-28T02:40:23.486Z,9.80
2022-10-28T02:42:55.818Z,9.88
2022-10-28T02:45:28.435Z,9.90
2022-10-28T02:48:01.634Z,10.20
2022-10-28T02:50:39.810Z,11.65
2022-10-28T02:53:23.505Z,10.05
2022-10-28T02:55:57.102Z,10.23
2022-10-28T02:58:24.786Z,10.57
2022-10-28T03:00:52.094Z,10.98
2022-10-28T03:03:19.887Z,8.65
2022-10-28T03:05:47.114Z,10.88
2022-10-28T03:08:14.339Z,10.43
2022-10-28T03:10:41.568Z,11.18
2022-10-28T03:13:08.915Z,10.73
2022-10-28T03:15:36.181Z,11.45
2022-10-28T03:18:03.964Z,11.82
2022-10-28T03:20:31.627Z,9.68
2022-10-28T03:22:59.194Z,10.80
2022-10-28T03:25:27.048Z,9.30
2022-10-28T03:27:54.309Z,10.00
2022-10-28T03:30:22.094Z,10.00
2022-10-28T03:32:49.764Z,11.05
2022-10-28T03:35:16.940Z,11.13
2022-10-28T03:37:44.554Z,11.55
2022-10-28T03:40:12.739Z,9.93
2022-10-28T03:42:43.452Z,10.88
2022-10-28T03:45:11.139Z,10.18
2022-10-28T03:47:38.846Z,10.27
2022-10-28T03:50:06.537Z,10.38
2022-10-28T03:52:33.789Z,11.77
2022-10-28T03:55:01.144Z,10.40
2022-10-28T03:57:32.923Z,8.80
2022-10-28T04:00:00.603Z,9.80
2022-10-28T04:02:28.558Z,10.00
2022-10-28T04:04:56.294Z,9.25
2022-10-28T04:07:24.055Z,10.02
2022-10-28T04:09:51.479Z,10.52
2022-10-28T04:12:19.058Z,11.32
2022-10-28T04:14:47.345Z,10.25
2022-10-28T04:17:14.945Z,9.68
2022-10-28T04:19:42.670Z,9.02
2022-10-28T04:22:10.268Z,8.30
2022-10-28T04:24:37.839Z,8.88
2022-10-28T04:27:05.456Z,9.70
2022-10-28T04:29:33.439Z,9.45
2022-10-28T04:32:01.091Z,9.32
2022-10-28T04:34:28.783Z,8.50
2022-10-28T04:36:56.646Z,9.27
2022-10-28T04:39:24.396Z,9.43
2022-10-28T04:41:52.046Z,9.48
2022-10-28T04:44:19.654Z,8.50
2022-10-28T04:46:47.544Z,7.95
2022-10-28T04:49:15.239Z,7.47
2022-10-28T04:51:42.969Z,10.32
2022-10-28T04:54:10.723Z,7.18
2022-10-28T04:56:38.477Z,8.05
2022-10-28T04:59:06.230Z,9.20
2022-10-28T05:01:33.561Z,9.05
2022-10-28T05:04:01.020Z,9.68
2022-10-28T05:06:28.375Z,8.07
2022-10-28T05:08:56.063Z,5.97
2022-10-28T05:11:23.846Z,8.93
2022-10-28T05:13:53.130Z,9.25
2022-10-28T05:16:20.789Z,7.75
2022-10-28T05:18:48.208Z,8.63
2022-10-28T05:21:15.951Z,8.02
2022-10-28T05:23:43.128Z,8.73
2022-10-28T05:26:10.866Z,7.15
2022-10-28T05:28:38.189Z,7.78
2022-10-28T05:31:05.907Z,7.30
2022-10-28T05:33:33.801Z,8.25
2022-10-28T05:36:01.632Z,7.05
2022-10-28T05:38:29.173Z,7.20
2022-10-28T05:40:56.440Z,7.35
2022-10-28T05:43:23.819Z,6.70
2022-10-28T05:45:58.102Z,6.78
2022-10-28T05:48:25.402Z,6.65
2022-10-28T05:50:52.674Z,7.43
2022-10-28T05:53:19.991Z,7.40
2022-10-28T05:55:47.951Z,7.35
2022-10-28T05:58:16.506Z,7.13
2022-10-28T06:00:43.923Z,6.57
2022-10-28T06:03:12.638Z,6.93
2022-10-28T06:05:42.837Z,9.00
2022-10-28T06:08:12.324Z,7.93
2022-10-28T06:10:40.535Z,6.65
2022-10-28T06:13:07.458Z,6.53
2022-10-28T06:15:34.766Z,6.70
2022-10-28T06:18:03.054Z,6.72
2022-10-28T06:20:30.437Z,7.45
2022-10-28T06:22:57.887Z,6.15
2022-10-28T06:25:25.882Z,6.82
2022-10-28T06:27:53.913Z,6.75
2022-10-28T06:30:22.785Z,5.50
2022-10-28T06:32:50.686Z,6.10
2022-10-28T06:35:18.486Z,5.85
2022-10-28T06:37:45.677Z,6.78
2022-10-28T06:40:13.075Z,6.90
2022-10-28T06:42:40.374Z,8.88
2022-10-28T06:45:08.113Z,7.57
2022-10-28T06:47:40.599Z,6.78
2022-10-28T06:50:09.171Z,6.35
2022-10-28T06:52:36.736Z,6.00
2022-10-28T06:55:04.491Z,5.88
2022-10-28T06:57:31.771Z,6.82
2022-10-28T06:59:59.027Z,7.05
2022-10-28T07:02:26.992Z,5.68
2022-10-28T07:04:54.206Z,6.68
2022-10-28T07:07:22.176Z,6.70
2022-10-28T07:09:49.815Z,5.43
2022-10-28T07:14:44.807Z,7.15
2022-10-28T07:17:12.341Z,7.45
2022-10-28T07:19:39.891Z,6.40
2022-10-28T07:22:07.550Z,6.18
2022-10-28T07:24:35.127Z,8.15
2022-10-28T07:27:02.809Z,6.10
2022-10-28T07:29:30.384Z,5.75
2022-10-28T07:31:58.040Z,6.13
2022-10-28T07:34:27.259Z,7.13
2022-10-28T07:36:55.956Z,5.97
2022-10-28T07:39:23.709Z,5.90
2022-10-28T07:41:51.348Z,5.57
2022-10-28T07:44:19.007Z,4.88
2022-10-28T07:46:46.628Z,5.03
2022-10-28T07:49:13.828Z,5.68
2022-10-28T07:51:41.479Z,5.80
2022-10-28T07:54:08.709Z,8.90
2022-10-28T07:56:36.424Z,7.28
2022-10-28T07:59:03.999Z,5.90
2022-10-28T08:01:31.327Z,6.32
2022-10-28T08:03:58.737Z,4.72
2022-10-28T08:06:26.533Z,5.55
2022-10-28T08:08:56.136Z,5.13
2022-10-28T08:11:24.613Z,4.80
2022-10-28T08:13:53.220Z,5.97
2022-10-28T08:16:20.708Z,4.13
2022-10-28T08:18:48.119Z,5.80
2022-10-28T08:21:16.232Z,4.95
2022-10-28T08:23:46.897Z,4.10
2022-10-28T08:26:16.343Z,5.60
2022-10-28T08:28:44.042Z,6.43
2022-10-28T08:31:14.836Z,6.25
2022-10-28T08:33:45.438Z,7.03
2022-10-28T08:36:15.223Z,5.53
2022-10-28T08:38:47.022Z,5.22
2022-10-28T08:41:36.017Z,5.75
2022-10-28T08:44:18.287Z,5.85
2022-10-28T08:47:16.204Z,6.68
2022-10-28T08:49:49.221Z,4.50
2022-10-28T08:52:25.401Z,7.10
2022-10-28T08:55:07.782Z,6.10
2022-10-28T08:57:40.515Z,5.78
2022-10-28T09:00:30.468Z,5.20
2022-10-28T09:03:13.225Z,5.30
2022-10-28T09:05:43.532Z,6.05
2022-10-28T09:08:33.440Z,5.15
2022-10-28T09:11:14.061Z,7.53
2022-10-28T09:13:55.087Z,4.22
2022-10-28T09:16:53.268Z,5.03
2022-10-28T09:19:52.776Z,4.25
2022-10-28T09:22:36.472Z,5.00
2022-10-28T09:25:22.995Z,4.93
2022-10-28T09:28:25.261Z,4.82
2022-10-28T09:30:55.347Z,4.07
2022-10-28T09:33:34.923Z,5.65
2022-10-28T09:36:05.478Z,4.80
2022-10-28T09:38:40.600Z,4.75
2022-10-28T09:41:34.375Z,4.35
2022-10-28T09:44:20.705Z,4.82
2022-10-28T09:46:51.098Z,5.25
2022-10-28T09:49:23.924Z,5.40
2022-10-28T09:52:16.018Z,3.17
2022-10-28T09:54:49.252Z,2.42
2022-10-28T09:57:17.462Z,2.60
2022-10-28T09:59:45.540Z,3.08
2022-10-28T10:02:32.393Z,1.60
2022-10-28T10:05:02.032Z,2.33
2022-10-28T10:07:34.858Z,1.60
2022-10-28T10:10:10.618Z,1.00
2022-10-28T10:12:38.916Z,1.42
2022-10-28T10:15:11.432Z,1.50
2022-10-28T10:17:47.249Z,1.40
2022-10-28T10:20:20.611Z,1.25
2022-10-28T10:22:49.238Z,1.00
2022-10-28T10:25:19.705Z,1.42
2022-10-28T10:28:00.064Z,2.17
2022-10-28T10:30:27.714Z,1.23
2022-10-28T10:32:55.276Z,2.10
2022-10-28T10:35:27.671Z,1.05
2022-10-28T10:37:58.094Z,1.55
2022-10-28T10:40:56.185Z,1.70
2022-10-28T10:43:32.618Z,1.70
2022-10-28T10:46:12.159Z,1.23
2022-10-28T10:48:39.813Z,1.45
2022-10-28T10:51:11.183Z,1.45
2022-10-28T10:53:40.204Z,1.08
2022-10-28T10:56:11.029Z,2.00
2022-10-28T10:58:41.495Z,1.38
2022-10-28T11:01:15.942Z,1.67
2022-10-28T11:04:04.916Z,1.27
2022-10-28T11:06:41.758Z,1.50
2022-10-28T11:09:24.466Z,1.48
2022-10-28T11:11:55.471Z,1.73
2022-10-28T11:14:24.560Z,0.88
2022-10-28T11:16:55.153Z,1.50
2022-10-28T11:19:33.153Z,2.63
2022-10-28T11:22:17.382Z,2.45
2022-10-28T11:24:44.640Z,1.48
2022-10-28T11:27:27.805Z,2.00
2022-10-28T11:29:56.148Z,2.20
2022-10-28T11:33:08.127Z,1.83
2022-10-28T11:35:59.935Z,1.70
2022-10-28T11:39:01.462Z,1.40
2022-10-28T11:41:29.154Z,2.30
2022-10-28T11:44:04.002Z,1.27
2022-10-28T11:46:41.368Z,1.05
2022-10-28T11:49:52.532Z,1.45
2022-10-28T11:53:12.368Z,1.98
2022-10-28T11:56:03.771Z,1.48
2022-10-28T11:58:51.733Z,2.28
2022-10-28T12:01:37.142Z,2.08
2022-10-28T12:04:25.635Z,1.23
2022-10-28T12:07:04.809Z,1.77
2022-10-28T12:10:03.125Z,1.50
2022-10-28T12:16:14.166Z,1.63
2022-10-28T12:18:56.430Z,1.48
2022-10-28T12:21:39.625Z,1.25
2022-10-28T12:24:18.217Z,1.00
2022-10-28T12:26:55.113Z,2.08
2022-10-28T12:29:33.755Z,1.38
2022-10-28T12:32:06.246Z,1.40
2022-10-28T12:34:39.999Z,2.67
2022-10-28T12:37:27.524Z,2.25
2022-10-28T12:40:01.546Z,2.40
2022-10-28T12:42:34.013Z,2.00
2022-10-28T12:45:06.700Z,2.50
2022-10-28T12:47:45.111Z,2.47
2022-10-28T12:50:19.931Z,1.77
2022-10-28T12:53:01.851Z,2.13
2022-10-28T12:55:35.859Z,2.78
2022-10-28T12:58:09.060Z,2.65
2022-10-28T13:00:42.449Z,3.28
2022-10-28T13:03:14.983Z,2.22
2022-10-28T13:06:23.995Z,2.45
2022-10-28T13:09:03.033Z,2.13
2022-10-28T13:11:38.573Z,1.33
2022-10-28T13:14:38.169Z,2.05
2022-10-28T13:17:15.306Z,2.17
2022-10-28T13:19:48.388Z,1.40
2022-10-28T13:22:25.089Z,1.55
2022-10-28T13:25:28.804Z,2.00
2022-10-28T13:27:58.150Z,3.03
2022-10-28T13:30:26.717Z,2.38
2022-10-28T13:33:18.160Z,2.60
2022-10-28T13:35:47.140Z,2.13
2022-10-28T13:38:24.481Z,2.05
2022-10-28T13:43:48.899Z,2.72
2022-10-28T13:46:52.950Z,1.90
2022-10-28T13:49:28.152Z,2.90
2022-10-28T13:52:22.800Z,1.88
2022-10-28T13:54:50.013Z,2.22
2022-10-28T13:57:39.356Z,2.10
2022-10-28T14:02:56.809Z,2.20
2022-10-28T14:05:28.140Z,2.53
2022-10-28T14:07:59.026Z,2.38
2022-10-28T14:10:28.791Z,1.48
2022-10-28T14:13:19.204Z,2.70
2022-10-28T14:15:50.952Z,2.92
2022-10-28T14:18:42.482Z,2.17
2022-10-28T14:21:10.349Z,1.80
2022-10-28T14:23:43.609Z,1.92
2022-10-28T14:26:10.993Z,1.70
2022-10-28T14:28:38.252Z,2.33
2022-10-28T14:31:20.884Z,2.08
2022-10-28T14:33:51.160Z,2.25
2022-10-28T14:36:18.780Z,2.25
2022-10-28T14:39:19.854Z,2.10
2022-10-28T14:42:31.722Z,2.05
2022-10-28T14:45:20.175Z,2.53
2022-10-28T14:48:34.815Z,2.55
2022-10-28T14:51:02.796Z,2.67
2022-10-28T14:53:34.086Z,2.33
2022-10-28T14:56:09.506Z,1.77
2022-10-28T14:58:42.418Z,3.33
2022-10-28T15:01:19.116Z,2.83
2022-10-28T15:04:04.698Z,1.70
2022-10-28T15:06:32.017Z,1.90
2022-10-28T15:09:30.560Z,1.48
2022-10-28T15:12:00.591Z,2.03
2022-10-28T15:14:38.931Z,2.40
2022-10-28T15:17:12.266Z,2.38
2022-10-28T15:19:39.645Z,1.98
2022-10-28T15:22:24.326Z,1.65
2022-10-28T15:25:10.670Z,1.90
2022-10-28T15:27:39.956Z,1.77
2022-10-28T15:30:24.535Z,2.42
2022-10-28T15:33:15.631Z,4.05
2022-10-28T15:35:43.327Z,3.35
2022-10-28T15:38:28.713Z,2.60
2022-10-28T15:40:56.983Z,1.77
2022-10-28T15:43:27.069Z,2.10
2022-10-28T15:45:54.721Z,1.80
2022-10-28T15:48:26.498Z,2.08
2022-10-28T15:51:12.590Z,1.70
2022-10-28T15:53:44.046Z,1.67
2022-10-28T15:56:14.000Z,1.73
2022-10-28T15:58:47.085Z,1.83
2022-10-28T16:01:38.230Z,2.22
2022-10-28T16:04:26.176Z,2.25
2022-10-28T16:09:32.343Z,2.20
2022-10-28T16:12:12.101Z,2.03
2022-10-28T16:14:42.611Z,2.30
2022-10-28T16:17:19.962Z,2.22
2022-10-28T16:22:18.413Z,1.15
2022-10-28T16:24:46.341Z,1.40
2022-10-28T16:27:22.489Z,1.42
2022-10-28T16:29:50.503Z,2.10
2022-10-28T16:32:21.922Z,1.65
2022-10-28T16:34:49.318Z,2.30
2022-10-28T16:37:26.183Z,1.98
2022-10-28T16:39:54.439Z,1.63
2022-10-28T16:42:22.617Z,1.52
2022-10-28T16:44:50.734Z,1.00
2022-10-28T16:47:20.379Z,1.40
2022-10-28T16:49:52.580Z,1.88
2022-10-28T16:52:26.289Z,1.80
2022-10-28T16:54:53.894Z,1.13
2022-10-28T16:59:54.452Z,2.00
2022-10-28T17:02:35.359Z,1.88
2022-10-28T17:05:07.375Z,1.83
2022-10-28T17:07:34.952Z,2.40
2022-10-28T17:10:02.620Z,2.25
2022-10-28T17:12:30.272Z,3.33
2022-10-28T17:14:57.817Z,2.28
2022-10-28T17:17:25.526Z,2.50
2022-10-28T17:19:53.260Z,2.70
2022-10-28T17:22:20.844Z,2.30
2022-10-28T17:24:48.480Z,2.55
2022-10-28T17:27:16.082Z,2.05
2022-10-28T17:29:43.360Z,2.13
2022-10-28T17:32:11.275Z,2.67
2022-10-28T17:34:39.198Z,2.25
2022-10-28T17:37:07.904Z,2.33
2022-10-28T17:39:35.833Z,2.63
2022-10-28T17:42:03.438Z,2.13
2022-10-28T17:44:30.892Z,2.35
2022-10-28T17:46:58.191Z,1.73
2022-10-28T17:49:25.442Z,2.33
2022-10-28T17:51:53.411Z,2.30
2022-10-28T17:54:21.245Z,2.00
2022-10-28T17:56:48.957Z,2.13
2022-10-28T17:59:16.386Z,1.75
2022-10-28T18:01:43.774Z,2.45
2022-10-28T18:04:12.198Z,1.75
2022-10-28T18:06:39.881Z,2.35
2022-10-28T18:09:11.654Z,1.90
2022-10-28T18:11:40.327Z,2.05
2022-10-28T18:14:07.694Z,3.30
2022-10-28T18:16:37.100Z,3.30
2022-10-28T18:19:05.869Z,2.00
2022-10-28T18:21:33.933Z,2.70
2022-10-28T18:24:04.733Z,3.13
2022-10-28T18:26:34.642Z,1.67
2022-10-28T18:29:05.942Z,2.38
2022-10-28T18:31:34.259Z,2.58
2022-10-28T18:34:02.462Z,1.83
2022-10-28T18:36:34.502Z,2.65
2022-10-28T18:39:05.256Z,2.00
2022-10-28T18:41:38.865Z,2.38
2022-10-28T18:44:07.340Z,1.85
2022-10-28T18:46:35.663Z,3.78
2022-10-28T18:49:08.327Z,6.25
2022-10-28T18:51:36.473Z,7.72
2022-10-28T18:54:05.125Z,20.17
2022-10-28T18:59:25.163Z,31.73
2022-10-28T19:01:53.035Z,22.60
2022-10-28T19:04:23.478Z,6.60
2022-10-28T19:06:51.325Z,17.50
2022-10-28T19:09:19.083Z,8.50
2022-10-28T19:11:46.975Z,5.70
2022-10-28T19:14:14.819Z,7.97
2022-10-28T19:16:42.555Z,11.57
2022-10-28T19:19:10.422Z,4.68
2022-10-28T19:21:38.135Z,5.20
2022-10-28T19:24:06.246Z,6.22
2022-10-28T19:26:34.856Z,5.85
2022-10-28T19:29:10.599Z,6.82
2022-10-28T19:31:39.030Z,3.10
2022-10-28T19:34:06.595Z,15.18
2022-10-28T19:36:34.162Z,11.32
2022-10-28T19:39:03.451Z,13.90
2022-10-28T19:41:30.776Z,21.02
2022-10-28T19:44:02.824Z,12.35
2022-10-28T19:46:35.258Z,16.00
2022-10-28T19:49:05.662Z,12.95
2022-10-28T19:51:39.099Z,17.45
2022-10-28T19:54:10.189Z,6.35
2022-10-28T19:56:38.741Z,7.25
2022-10-28T19:59:06.787Z,5.10
2022-10-28T20:01:37.912Z,4.40
2022-10-28T20:04:17.385Z,5.05
2022-10-28T20:06:44.764Z,4.55
2022-10-28T20:09:12.606Z,4.53
2022-10-28T20:11:40.654Z,4.75
2022-10-28T20:14:11.758Z,4.22
2022-10-28T20:16:46.013Z,3.70
2022-10-28T20:19:13.589Z,3.90
2022-10-28T20:21:42.455Z,3.88
2022-10-28T20:24:10.302Z,4.03
2022-10-28T20:26:38.875Z,3.78
2022-10-28T20:29:08.803Z,3.65
2022-10-28T20:31:39.001Z,5.20
2022-10-28T20:34:07.515Z,6.53
2022-10-28T20:36:40.089Z,9.27
2022-10-28T20:39:18.520Z,4.82
2022-10-28T20:41:47.824Z,4.25
2022-10-28T20:44:16.033Z,3.30
2022-10-28T20:46:45.201Z,3.35
2022-10-28T20:49:13.350Z,4.18
2022-10-28T20:51:44.213Z,4.03
2022-10-28T20:54:12.059Z,4.43
2022-10-28T20:56:42.148Z,3.50
2022-10-28T20:59:09.876Z,4.15
2022-10-28T21:01:40.419Z,4.40
2022-10-28T21:04:10.937Z,5.57
2022-10-28T21:06:39.401Z,4.72
2022-10-28T21:09:11.709Z,4.55
2022-10-28T21:11:39.768Z,5.40
2022-10-28T21:14:07.424Z,4.68
2022-10-28T21:16:35.246Z,3.53
2022-10-28T21:19:02.984Z,3.80
2022-10-28T21:21:30.953Z,4.25
2022-10-28T21:23:58.622Z,3.25
2022-10-28T21:26:27.112Z,5.13
2022-10-28T21:28:56.557Z,3.17
2022-10-28T21:31:24.638Z,4.93
2022-10-28T21:33:52.098Z,3.13
2022-10-28T21:36:21.166Z,5.25
2022-10-28T21:38:48.538Z,2.85
2022-10-28T21:41:20.747Z,3.03
2022-10-28T21:43:49.894Z,3.65
2022-10-28T21:46:18.832Z,3.28
2022-10-28T21:48:46.562Z,4.72
2022-10-28T21:51:15.564Z,3.33
2022-10-28T21:53:44.602Z,3.00
2022-10-28T21:56:17.568Z,3.15
2022-10-28T21:58:47.959Z,3.20
2022-10-28T22:01:18.352Z,3.72
2022-10-28T22:03:45.750Z,3.72
2022-10-28T22:06:13.593Z,3.20
2022-10-28T22:08:41.302Z,2.90
2022-10-28T22:11:15.703Z,3.70
2022-10-28T22:13:43.297Z,3.33
2022-10-28T22:16:17.214Z,4.47
2022-10-28T22:18:45.032Z,4.25
2022-10-28T22:21:15.835Z,3.28
2022-10-28T22:23:53.020Z,3.95
2022-10-28T22:26:25.601Z,3.22
2022-10-28T22:28:53.283Z,3.92
2022-10-28T22:31:26.180Z,3.88
2022-10-28T22:33:53.780Z,3.47
2022-10-28T22:36:23.366Z,3.88
2022-10-28T22:38:51.290Z,2.75
2022-10-28T22:41:18.547Z,3.97
2022-10-28T22:43:53.895Z,2.92
2022-10-28T22:46:22.349Z,3.45
2022-10-28T22:48:50.408Z,2.88
2022-10-28T22:51:18.349Z,5.15
2022-10-28T22:53:46.371Z,3.30
2022-10-28T22:56:16.369Z,3.65
2022-10-28T22:58:46.522Z,2.85
2022-10-28T23:01:16.819Z,3.10
2022-10-28T23:03:50.076Z,3.40
2022-10-28T23:06:25.920Z,3.55
2022-10-28T23:08:53.902Z,3.90
2022-10-28T23:11:22.187Z,3.33
2022-10-28T23:13:53.659Z,4.03
2022-10-28T23:16:22.736Z,3.13
2022-10-28T23:18:50.330Z,2.97
2022-10-28T23:21:38.796Z,3.92
2022-10-28T23:24:07.025Z,3.67
2022-10-28T23:26:36.781Z,3.70
2022-10-28T23:29:04.507Z,3.70
2022-10-28T23:31:31.869Z,3.42
2022-10-28T23:33:59.813Z,3.53
2022-10-28T23:36:27.672Z,3.13
2022-10-28T23:38:56.877Z,4.07
2022-10-28T23:41:24.477Z,3.92
2022-10-28T23:43:52.032Z,4.13
2022-10-28T23:46:21.324Z,3.65
2022-10-28T23:48:48.705Z,3.65
2022-10-28T23:51:16.575Z,4.15
2022-10-28T23:53:44.076Z,3.70
2022-10-28T23:56:11.481Z,3.90
2022-10-28T23:58:38.952Z,3.60
